createdAt,value
2018-04-27T00:05:09.570Z,14.26
2018-04-27T00:11:00.197Z,14.61
2018-04-27T00:16:50.887Z,14.38
2018-04-27T00:22:41.592Z,14.11
2018-04-27T00:28:32.288Z,14
2018-04-27T00:34:22.985Z,14.26
2018-04-27T00:40:13.641Z,12.93
2018-04-27T00:46:04.290Z,13.52
2018-04-27T00:51:54.997Z,11.51
2018-04-27T00:57:45.618Z,10.69
2018-04-27T01:03:36.372Z,10.02
2018-04-27T01:09:27.008Z,9.79
2018-04-27T01:15:17.644Z,9.98
2018-04-27T01:21:08.385Z,8.97
2018-04-27T01:26:58.995Z,9.43
2018-04-27T01:32:49.684Z,9.29
2018-04-27T01:38:40.349Z,10.33
2018-04-27T01:44:31.071Z,8.62
2018-04-27T01:50:21.715Z,10.14
2018-04-27T01:56:12.372Z,8.98
2018-04-27T02:02:03.078Z,10.35
2018-04-27T02:07:53.705Z,11.08
2018-04-27T02:13:44.398Z,13.76
2018-04-27T02:19:35.029Z,13.31
2018-04-27T02:25:25.734Z,12.56
2018-04-27T02:31:16.391Z,12.09
2018-04-27T02:37:07.060Z,12.18
2018-04-27T02:42:57.792Z,12.35
2018-04-27T02:48:48.421Z,17.51
2018-04-27T02:54:39.075Z,16.32
2018-04-27T03:00:29.696Z,15.43
2018-04-27T03:06:20.415Z,16
2018-04-27T03:12:11.075Z,15.13
2018-04-27T03:18:01.709Z,15.24
2018-04-27T03:23:52.489Z,12.89
2018-04-27T03:29:43.035Z,13.58
2018-04-27T03:35:33.743Z,12.84
2018-04-27T03:41:24.425Z,18.21
2018-04-27T03:47:15.070Z,17.57
2018-04-27T03:53:05.719Z,17.12
2018-04-27T03:58:56.341Z,16.46
2018-04-27T04:04:47.022Z,13.9
2018-04-27T04:10:37.717Z,13.74
2018-04-27T04:16:28.366Z,13.16
2018-04-27T04:22:19.003Z,14.12
2018-04-27T04:28:09.735Z,15.47
2018-04-27T04:34:01.190Z,15.69
2018-04-27T04:39:51.072Z,14.18
2018-04-27T04:45:41.686Z,13.57
2018-04-27T04:51:32.370Z,13.55
2018-04-27T04:57:22.989Z,12.52
2018-04-27T05:03:13.693Z,15.84
2018-04-27T05:09:04.350Z,18.15
2018-04-27T05:14:55.041Z,17.86
2018-04-27T05:20:45.650Z,20.57
2018-04-27T05:26:36.315Z,21.16
2018-04-27T05:32:26.981Z,19.59
2018-04-27T05:38:17.689Z,20.02
2018-04-27T05:44:08.292Z,20.51
2018-04-27T05:49:59.004Z,20.16
2018-04-27T05:55:49.631Z,19.58
2018-04-27T06:01:40.297Z,20.14
2018-04-27T06:07:31.010Z,19.21
2018-04-27T06:13:21.658Z,22.19
2018-04-27T06:19:12.345Z,24.29
2018-04-27T06:25:02.997Z,25.54
2018-04-27T06:30:53.640Z,23.87
2018-04-27T06:36:44.312Z,29.38
2018-04-27T06:42:34.998Z,21.01
2018-04-27T06:48:25.680Z,19.21
2018-04-27T06:54:16.340Z,19.15
2018-04-27T07:00:07.055Z,19.32
2018-04-27T07:05:57.785Z,17.99
2018-04-27T07:11:48.422Z,17.93
2018-04-27T07:17:39.074Z,18.01
2018-04-27T07:23:29.819Z,19.45
2018-04-27T07:29:20.447Z,18.9
2018-04-27T07:35:11.147Z,17.8
2018-04-27T07:41:01.844Z,17.75
2018-04-27T07:46:52.555Z,17.62
2018-04-27T07:52:43.211Z,14.02
2018-04-27T07:58:33.898Z,14.17
2018-04-27T08:04:24.792Z,13.25
2018-04-27T08:10:15.286Z,13.39
2018-04-27T08:16:06.006Z,14.79
2018-04-27T08:21:56.689Z,12.34
2018-04-27T08:27:47.385Z,11.25
2018-04-27T08:33:38.098Z,12.23
2018-04-27T08:39:28.849Z,13.91
2018-04-27T08:45:19.515Z,10.92
2018-04-27T08:51:10.246Z,10.07
2018-04-27T08:57:00.911Z,10.9
2018-04-27T09:02:51.759Z,9.6
2018-04-27T09:08:42.346Z,9.88
2018-04-27T09:14:33.063Z,9.26
2018-04-27T09:20:23.784Z,9.8
2018-04-27T09:26:14.474Z,9.05
2018-04-27T09:32:05.219Z,9.26
2018-04-27T09:37:55.930Z,9.52
2018-04-27T09:43:46.627Z,8.18
2018-04-27T09:49:37.368Z,6.38
2018-04-27T09:55:28.074Z,8.11
2018-04-27T10:01:18.807Z,8.27
2018-04-27T10:07:09.528Z,7.24
2018-04-27T10:13:00.215Z,6.76
2018-04-27T10:18:51.004Z,6.5
2018-04-27T10:24:41.684Z,6.51
2018-04-27T10:30:32.417Z,6.58
2018-04-27T10:36:23.204Z,6.26
2018-04-27T10:42:13.909Z,5.31
2018-04-27T10:48:04.631Z,6.96
2018-04-27T10:53:55.420Z,5.92
2018-04-27T10:59:46.114Z,5.25
2018-04-27T11:05:36.861Z,5.52
2018-04-27T11:11:27.606Z,5.26
2018-04-27T11:17:18.337Z,3.94
2018-04-27T11:23:09.082Z,4.41
2018-04-27T11:28:59.819Z,9.08
2018-04-27T11:34:50.556Z,41.2
2018-04-27T11:40:41.285Z,5.54
2018-04-27T11:46:32.055Z,4.23
2018-04-27T11:52:22.809Z,3.61
2018-04-27T11:58:13.531Z,4.04
2018-04-27T12:04:04.319Z,4.29
2018-04-27T12:09:55.105Z,3.61
2018-04-27T12:15:45.895Z,3.53
2018-04-27T12:21:36.681Z,3.46
2018-04-27T12:27:27.517Z,2.61
2018-04-27T12:33:18.401Z,3.89
2018-04-27T12:39:09.226Z,3.22
2018-04-27T12:45:00.026Z,3.62
2018-04-27T12:50:50.891Z,3.25
2018-04-27T12:56:41.712Z,2.84
2018-04-27T13:02:32.587Z,3.07
2018-04-27T13:08:23.419Z,3.4
2018-04-27T13:14:14.283Z,2.79
2018-04-27T13:20:05.100Z,3.37
2018-04-27T13:25:56.005Z,3.51
2018-04-27T13:31:46.812Z,3.5
2018-04-27T13:37:37.756Z,3.07
2018-04-27T13:43:28.557Z,3.17
2018-04-27T13:49:19.418Z,3.96
2018-04-27T13:55:10.266Z,4
2018-04-27T14:01:01.065Z,4.15
2018-04-27T14:06:52.006Z,3.66
2018-04-27T14:12:42.803Z,3.71
2018-04-27T14:18:33.651Z,3.32
2018-04-27T14:24:24.430Z,3.61
2018-04-27T14:30:15.249Z,3.67
2018-04-27T14:36:06.042Z,4.6
2018-04-27T14:41:56.836Z,4.22
2018-04-27T14:47:47.659Z,4.98
2018-04-27T14:53:38.418Z,4.98
2018-04-27T14:59:29.160Z,4.44
2018-04-27T15:05:20.034Z,4.84
2018-04-27T15:11:10.664Z,4.46
2018-04-27T15:17:01.450Z,4.86
2018-04-27T15:22:52.199Z,5.42
2018-04-27T15:28:42.943Z,4.92
2018-04-27T15:34:33.683Z,6.18
2018-04-27T15:40:24.419Z,5.78
2018-04-27T15:46:15.181Z,5.58
2018-04-27T15:52:05.943Z,5.75
2018-04-27T15:57:56.685Z,5.4
2018-04-27T16:03:47.445Z,5.67
2018-04-27T16:09:38.126Z,4.67
2018-04-27T16:15:28.878Z,4.53
2018-04-27T16:21:19.708Z,3.75
2018-04-27T16:27:10.402Z,3.95
2018-04-27T16:33:01.121Z,3.75
2018-04-27T16:38:51.905Z,4.15
2018-04-27T16:44:42.582Z,4.18
2018-04-27T16:50:33.346Z,4.41
2018-04-27T16:56:24.058Z,5.07
2018-04-27T17:02:14.794Z,4.41
2018-04-27T17:08:05.639Z,3.97
2018-04-27T17:13:56.324Z,4.52
2018-04-27T17:19:47.062Z,4.41
2018-04-27T17:25:37.774Z,5.36
2018-04-27T17:31:28.488Z,4.51
2018-04-27T17:37:19.252Z,4.47
2018-04-27T17:43:10.002Z,4.28
2018-04-27T17:49:00.760Z,4.32
2018-04-27T17:54:51.506Z,4.51
2018-04-27T18:00:42.200Z,5.21
2018-04-27T18:06:32.939Z,4.73
2018-04-27T18:12:23.708Z,4.9
2018-04-27T18:18:14.480Z,5.19
2018-04-27T18:24:05.115Z,4.65
2018-04-27T18:29:55.888Z,4.62
2018-04-27T18:35:46.608Z,3.66
2018-04-27T18:41:37.260Z,3.4
2018-04-27T18:47:28.058Z,4.54
2018-04-27T18:53:18.750Z,5.1
2018-04-27T18:59:09.451Z,4.28
2018-04-27T19:05:00.185Z,5.66
2018-04-27T19:10:50.909Z,5.25
2018-04-27T19:16:41.663Z,5.39
2018-04-27T19:22:32.319Z,5.45
2018-04-27T19:28:23.041Z,4.3
2018-04-27T19:34:13.757Z,5.25
2018-04-27T19:40:04.483Z,4.86
2018-04-27T19:45:55.227Z,4.71
2018-04-27T19:51:45.916Z,4.45
2018-04-27T19:57:36.640Z,4.47
2018-04-27T20:03:27.348Z,4.09
2018-04-27T20:09:18.025Z,4.85
2018-04-27T20:15:08.754Z,4.71
2018-04-27T20:20:59.540Z,4.23
2018-04-27T20:26:50.168Z,4.65
2018-04-27T20:32:40.922Z,4.59
2018-04-27T20:38:31.625Z,4.62
2018-04-27T20:44:22.373Z,4.11
2018-04-27T20:50:13.091Z,4.83
2018-04-27T20:56:03.757Z,3.99
2018-04-27T21:01:54.414Z,4.24
2018-04-27T21:07:45.088Z,4
2018-04-27T21:13:35.772Z,4.24
2018-04-27T21:19:26.557Z,4.61
2018-04-27T21:25:17.223Z,4.12
2018-04-27T21:31:07.894Z,4.26
2018-04-27T21:36:58.660Z,4.67
2018-04-27T21:42:49.365Z,4.99
2018-04-27T21:48:39.998Z,6.52
2018-04-27T21:54:30.721Z,7.17
2018-04-27T22:00:21.392Z,6.71
2018-04-27T22:06:12.092Z,6.44
2018-04-27T22:12:02.812Z,5.32
2018-04-27T22:17:53.504Z,5.16
2018-04-27T22:23:44.170Z,6.15
2018-04-27T22:29:34.882Z,6.12
2018-04-27T22:35:25.803Z,6.9
2018-04-27T22:41:16.449Z,7.3
2018-04-27T22:52:57.826Z,6.9
2018-04-27T22:58:48.468Z,7.1
2018-04-27T23:04:39.179Z,7.32
2018-04-27T23:10:29.888Z,7.34
2018-04-27T23:16:20.584Z,7.61
2018-04-27T23:22:11.313Z,7.56
2018-04-27T23:28:01.933Z,7.7
2018-04-27T23:33:52.618Z,6.88
2018-04-27T23:39:43.295Z,7.12
2018-04-27T23:45:33.937Z,7.61
2018-04-27T23:51:24.665Z,6.59
2018-04-27T23:57:15.296Z,6.37
